Wichita Falls, TX (76310)

10:33 AM CDT on October 02, 2014 (GMT -0500)
Southwest pkwy/Rhea Rd. | Change Station
CLOSE
Current Station
Personal Weather Station
Location: WICHITA FALLS, TX
Elevation: 984 ft
Nearby Weather Stations

Elev 984 ft 33.85 °N, 98.54 °W | Updated 4 minutes ago

Mostly Cloudy
Mostly Cloudy
80.1 °F
Feels Like 83 °F
N
8.0
Wind Variable Wind from SSW
Gusts 9.6 mph

Today
High -- | Low -- °F
--% Chance of Precip.
Yesterday
High -- | Low -- °F
Precip. -- in
7:29 AM 7:17 PM
First Quarter, 59% visible
Pressure 29.80 in
Visibility 10.0 miles
Clouds Overcast 3900 ft
Heat Index 83 °F
Dew Point 69 °F
Humidity 68%
Rainfall 0.00 in
Snow Depth Not available.
UV 1 out of 12
Pollen 9.30 out of 12
Air Quality Not available.
Flu Activity Not available.
METAR KCWC 021515Z AUTO 22008G14KT 10SM OVC039 27/20 A2980 RMK AO2 LTG DSNT NE T02720197

More Conditions Fewer Conditions

Pressure 29.80 in
Visibility 10.0 miles
Clouds Overcast 3900 ft
Heat Index 83 °F
Dew Point 69 °F
Humidity 68%
Rainfall 0.00 in
Snow Depth Not available.
UV 1 out of 12
Pollen 9.30 out of 12
Air Quality Not available.
Flu Activity Not available.
METAR KCWC 021515Z AUTO 22008G14KT 10SM OVC039 27/20 A2980 RMK AO2 LTG DSNT NE T02720197

More Conditions Fewer Conditions

10-Day Weather Forecast

Almanac

Astronomy

Oct. 02, 2014 Rise Set
Actual Time 7:29 AM CDT 7:17 PM CDT
Civil Twilight 7:04 AM CDT 7:42 PM CDT
Nautical Twilight 6:35 AM CDT 8:10 PM CDT
Astronomical Twilight 6:06 AM CDT 8:39 PM CDT
Moon 3:10 PM CDT 1:03 AM CDT
Length of Visible Light 12h 37m
Length of Day
11h 47m
Tomorrow will be 2m 5s shorter.
First Quarter, 59% of the Moon is Illuminated
Today
First Quarter
Oct 8
Full
Oct 15
Last Quarter
Oct 23
New
Oct 30
First Quarter

Today's Extremes

State Highs State Lows

Community

WunderPhotos

Upload Photos

1,758,276 photos uploaded!

WunderBlogs® & News

Nearby

Snow Depth

Station Depth Elevation
No new snow has been reported.

Earthquake Activity

City Distance Mag. Time & Date
Guthrie, Oklahoma 152 miles 3.0 5:15 PM CDT
2014-10-01
Spencer, Oklahoma 136 miles 3.0 5:12 PM CDT
2014-09-30
Minimum magnitude displayed is 2.5.

Coastal Water Temperatures

Place Temperature
No Stations Reporting

Nearby Weather Stations